Time;durP1;ratioP1;P1;durP2;ratioP2;P2;SDS_P1;SDS_P2;PMS_P1;PMS_P2;Temp;Humidity;BMP_temperature;BMP_pressure;BME280_temperature;BME280_humidity;BME280_pressure;Samples;Min_cycle;Max_cycle;Signal;HPM_P1;HPM_P2
2021/01/08 00:01:43;;;;;;;33.67;21.88;;;3.00;79.50;;;;;;5012259;28;20912;-71
2021/01/08 00:04:09;;;;;;;35.50;22.30;;;3.00;78.50;;;;;;5012191;28;20393;-71
2021/01/08 00:06:35;;;;;;;36.53;22.57;;;3.00;79.60;;;;;;5011293;28;20395;-73
2021/01/08 00:09:00;;;;;;;33.27;22.20;;;3.00;80.10;;;;;;5012014;28;20404;-73
2021/01/08 00:11:26;;;;;;;33.83;22.63;;;2.90;80.80;;;;;;5010606;28;20405;-73
2021/01/08 00:13:52;;;;;;;31.20;21.42;;;3.00;79.80;;;;;;5012351;28;20799;-72
2021/01/08 00:16:18;;;;;;;30.90;20.20;;;3.00;77.50;;;;;;5011598;28;20471;-72
2021/01/08 00:18:45;;;;;;;28.92;19.70;;;3.00;77.00;;;;;;5012570;28;20476;-72
2021/01/08 00:21:10;;;;;;;30.83;20.20;;;3.00;76.70;;;;;;5012237;28;20895;-72
2021/01/08 00:23:36;;;;;;;33.42;21.50;;;3.00;77.00;;;;;;5012383;28;20428;-71
2021/01/08 00:26:02;;;;;;;33.47;21.90;;;2.90;76.80;;;;;;5012242;28;20743;-72
2021/01/08 00:28:27;;;;;;;35.72;22.30;;;2.90;78.30;;;;;;5010986;28;21004;-72
2021/01/08 00:30:53;;;;;;;36.25;22.77;;;2.80;78.90;;;;;;5011973;28;20500;-71
2021/01/08 00:33:19;;;;;;;34.13;21.83;;;2.90;79.80;;;;;;5010982;28;20483;-72
2021/01/08 00:35:44;;;;;;;34.10;22.13;;;2.80;79.20;;;;;;5012229;28;20398;-71
2021/01/08 00:38:10;;;;;;;32.47;20.90;;;2.90;78.80;;;;;;5012162;28;20392;-72
2021/01/08 00:40:36;;;;;;;35.72;22.35;;;2.90;77.90;;;;;;5011923;28;20878;-72
2021/01/08 00:43:01;;;;;;;32.87;20.93;;;2.90;77.50;;;;;;5011825;28;20463;-72
2021/01/08 00:45:27;;;;;;;33.63;22.60;;;2.90;78.30;;;;;;5010786;28;20996;-72
2021/01/08 00:47:52;;;;;;;35.33;22.00;;;2.80;79.30;;;;;;5012008;28;20413;-74
2021/01/08 00:50:19;;;;;;;32.67;20.90;;;2.80;79.70;;;;;;5011737;28;20480;-71
2021/01/08 00:52:44;;;;;;;29.75;19.70;;;2.90;78.70;;;;;;5012043;28;20895;-71
2021/01/08 00:55:11;;;;;;;31.13;20.50;;;2.90;78.40;;;;;;5011681;28;20699;-71
2021/01/08 00:57:36;;;;;;;33.95;20.63;;;3.00;78.70;;;;;;5011649;28;20644;-71
2021/01/08 01:00:04;;;;;;;33.27;20.80;;;3.00;78.50;;;;;;5011579;28;20894;-71
2021/01/08 01:02:31;;;;;;;29.02;18.20;;;2.90;79.40;;;;;;5011862;28;20450;-71
2021/01/08 01:04:57;;;;;;;29.65;19.55;;;3.00;78.20;;;;;;5011856;28;20404;-71
2021/01/08 01:07:22;;;;;;;31.07;19.67;;;3.00;78.00;;;;;;5011798;28;20922;-71
2021/01/08 01:09:48;;;;;;;31.97;20.07;;;3.00;79.00;;;;;;5011131;28;20469;-72
2021/01/08 01:12:13;;;;;;;30.97;20.33;;;3.00;78.90;;;;;;5011076;28;20882;-72
2021/01/08 01:14:39;;;;;;;29.00;19.00;;;3.00;79.30;;;;;;5011544;28;20809;-70
2021/01/08 01:17:05;;;;;;;29.90;20.00;;;3.00;78.50;;;;;;5011420;28;20446;-70
2021/01/08 01:19:30;;;;;;;31.58;20.35;;;3.00;79.70;;;;;;5009939;28;20484;-71
2021/01/08 01:21:56;;;;;;;29.90;18.90;;;3.00;80.70;;;;;;4997061;28;20502;-71
2021/01/08 01:24:22;;;;;;;31.48;20.48;;;3.10;79.90;;;;;;4999258;28;20400;-72
2021/01/08 01:26:54;;;;;;;31.00;19.83;;;3.00;79.10;;;;;;5011417;28;20400;-71
2021/01/08 01:29:27;;;;;;;31.27;19.67;;;3.10;80.00;;;;;;5010857;28;20464;-71
2021/01/08 01:31:53;;;;;;;32.35;20.27;;;3.00;79.70;;;;;;5011247;28;20388;-72
2021/01/08 01:34:19;;;;;;;31.25;20.10;;;3.10;78.90;;;;;;5011188;28;20380;-71
2021/01/08 01:36:45;;;;;;;30.00;20.40;;;3.10;78.80;;;;;;5011027;28;20393;-72
2021/01/08 01:39:12;;;;;;;31.05;20.33;;;3.10;79.20;;;;;;5010173;28;20442;-72
2021/01/08 01:41:40;;;;;;;32.30;20.52;;;3.10;78.50;;;;;;5010931;28;20444;-71
2021/01/08 01:44:06;;;;;;;29.95;19.42;;;3.20;78.00;;;;;;5011147;28;20393;-71
2021/01/08 01:46:31;;;;;;;28.98;19.38;;;3.20;77.40;;;;;;5010957;28;20896;-72
2021/01/08 01:48:57;;;;;;;29.43;19.53;;;3.20;77.20;;;;;;5008611;28;20412;-72
2021/01/08 01:51:23;;;;;;;31.40;20.47;;;3.10;77.80;;;;;;5009900;28;20944;-71
2021/01/08 01:53:49;;;;;;;30.40;19.65;;;3.00;80.10;;;;;;5011218;28;20395;-73
2021/01/08 01:56:15;;;;;;;30.77;19.85;;;3.00;78.90;;;;;;5011298;28;20385;-71
2021/01/08 01:58:40;;;;;;;32.08;19.83;;;3.00;79.70;;;;;;5010948;28;20439;-72
2021/01/08 02:01:07;;;;;;;31.52;19.77;;;3.00;80.00;;;;;;5010601;28;20428;-72
2021/01/08 02:04:05;;;;;;;32.97;20.85;;;3.00;79.80;;;;;;5011100;28;20794;-72
2021/01/08 02:06:36;;;;;;;33.70;20.55;;;3.00;80.40;;;;;;4982453;28;20402;-71
2021/01/08 02:09:06;;;;;;;32.60;21.40;;;3.00;82.00;;;;;;4991092;28;20441;-73
2021/01/08 02:11:35;;;;;;;32.87;20.20;;;2.90;82.50;;;;;;5006825;28;20424;-73
2021/01/08 02:14:19;;;;;;;29.55;19.77;;;3.10;85.30;;;;;;5009770;28;20901;-72
2021/01/08 02:16:47;;;;;;;31.33;20.58;;;3.20;81.80;;;;;;5011341;28;20411;-72
2021/01/08 02:19:24;;;;;;;30.00;19.48;;;3.00;81.80;;;;;;5010503;28;20893;-71
2021/01/08 02:21:55;;;;;;;28.15;18.02;;;3.10;83.80;;;;;;5010764;28;20909;-72
2021/01/08 02:24:30;;;;;;;28.85;18.50;;;3.40;76.30;;;;;;5010052;28;20401;-73
2021/01/08 02:26:56;;;;;;;28.50;19.05;;;3.30;78.80;;;;;;5010198;28;20908;-72
2021/01/08 02:29:22;;;;;;;25.58;17.90;;;3.40;77.60;;;;;;5010421;28;20905;-72
2021/01/08 02:31:49;;;;;;;25.25;17.05;;;3.40;78.20;;;;;;5010724;28;20385;-72
2021/01/08 02:34:15;;;;;;;26.20;16.92;;;3.50;75.90;;;;;;5010619;28;20385;-71
2021/01/08 02:36:43;;;;;;;23.25;15.50;;;3.50;75.00;;;;;;5010872;28;20389;-70
2021/01/08 02:39:10;;;;;;;24.33;16.05;;;3.60;72.70;;;;;;5009923;28;20396;-71
2021/01/08 02:41:37;;;;;;;24.25;16.30;;;3.50;74.10;;;;;;5010528;28;20402;-72
2021/01/08 02:44:03;;;;;;;23.00;15.35;;;3.40;76.20;;;;;;5010719;28;20745;-72
2021/01/08 02:46:29;;;;;;;21.50;14.75;;;3.50;74.70;;;;;;5010606;28;20886;-71
2021/01/08 02:48:55;;;;;;;21.50;13.85;;;3.50;75.90;;;;;;5010321;28;20458;-71
2021/01/08 02:51:20;;;;;;;21.03;13.53;;;3.50;74.90;;;;;;5011308;28;20404;-72
2021/01/08 02:53:48;;;;;;;21.43;14.33;;;3.40;77.40;;;;;;5014342;28;20389;-72
2021/01/08 02:56:17;;;;;;;19.30;13.00;;;3.40;76.80;;;;;;5014024;28;20412;-71
2021/01/08 02:58:44;;;;;;;16.67;11.35;;;3.50;77.90;;;;;;5014009;28;20388;-72
2021/01/08 03:01:11;;;;;;;17.77;12.07;;;3.30;77.80;;;;;;5013903;28;20389;-72
2021/01/08 03:03:37;;;;;;;17.40;11.30;;;3.30;79.20;;;;;;5013963;28;20389;-71
2021/01/08 03:06:03;;;;;;;18.27;12.00;;;3.20;79.30;;;;;;5013708;28;20874;-71
2021/01/08 03:08:31;;;;;;;18.50;12.30;;;3.20;80.60;;;;;;5013874;28;20412;-72
2021/01/08 03:10:57;;;;;;;18.40;12.60;;;3.20;81.00;;;;;;5013798;28;20415;-71
2021/01/08 03:13:23;;;;;;;18.48;12.43;;;3.20;81.20;;;;;;5014064;28;20952;-72
2021/01/08 03:15:49;;;;;;;20.20;13.52;;;3.30;81.60;;;;;;5013884;28;20446;-71
2021/01/08 03:18:14;;;;;;;17.03;12.23;;;3.20;81.50;;;;;;5013068;28;20397;-72
2021/01/08 03:20:40;;;;;;;18.93;12.63;;;3.30;80.70;;;;;;5013434;28;20429;-72
2021/01/08 03:23:06;;;;;;;20.40;14.50;;;3.20;78.70;;;;;;5013766;28;20898;-72
2021/01/08 03:25:32;;;;;;;21.77;14.10;;;3.30;80.90;;;;;;5013496;28;20389;-72
2021/01/08 03:27:57;;;;;;;19.70;12.93;;;3.30;80.20;;;;;;5013669;28;20412;-72
2021/01/08 03:30:23;;;;;;;18.77;13.20;;;3.30;79.90;;;;;;5008871;28;20391;-71
2021/01/08 03:32:49;;;;;;;19.00;13.05;;;3.20;79.40;;;;;;5006499;28;20398;-72
2021/01/08 03:35:14;;;;;;;19.33;12.80;;;3.20;80.20;;;;;;5013326;28;20385;-71
2021/01/08 03:37:40;;;;;;;17.70;12.10;;;3.30;79.60;;;;;;5013293;28;20898;-72
2021/01/08 03:40:06;;;;;;;18.17;12.25;;;3.30;77.80;;;;;;5013001;28;20805;-72
2021/01/08 03:42:32;;;;;;;20.50;12.93;;;3.20;77.80;;;;;;5013206;28;20391;-72
2021/01/08 03:44:58;;;;;;;19.50;11.60;;;3.20;82.70;;;;;;5013629;28;20464;-73
2021/01/08 03:47:23;;;;;;;19.15;12.85;;;3.30;79.70;;;;;;5013200;28;20406;-72
2021/01/08 03:49:49;;;;;;;20.85;13.93;;;3.10;78.60;;;;;;5012952;28;20743;-70
2021/01/08 03:52:14;;;;;;;20.43;13.13;;;3.10;79.90;;;;;;5013199;28;20565;-71
2021/01/08 03:54:40;;;;;;;20.13;12.90;;;3.10;80.00;;;;;;5011757;28;20400;-70
2021/01/08 03:57:05;;;;;;;19.10;12.80;;;3.10;79.00;;;;;;5013374;28;20467;-72
2021/01/08 03:59:31;;;;;;;21.23;13.90;;;3.10;79.20;;;;;;5009842;28;20419;-71
2021/01/08 04:01:56;;;;;;;19.30;13.43;;;3.10;79.90;;;;;;5012917;28;20901;-71
2021/01/08 04:04:22;;;;;;;20.88;14.13;;;3.20;79.00;;;;;;5013274;28;20398;-72
2021/01/08 04:06:50;;;;;;;21.40;14.43;;;3.20;79.80;;;;;;5013956;28;20402;-71
2021/01/08 04:09:16;;;;;;;20.17;13.73;;;3.20;80.60;;;;;;5013061;28;20528;-72
2021/01/08 04:11:42;;;;;;;19.33;13.77;;;3.30;80.10;;;;;;5012732;28;20401;-70
2021/01/08 04:14:07;;;;;;;21.83;14.80;;;3.30;80.70;;;;;;5012374;28;20444;-71
2021/01/08 04:16:38;;;;;;;22.70;14.50;;;3.10;82.70;;;;;;5012613;28;20400;-70
2021/01/08 04:19:04;;;;;;;20.98;14.98;;;3.10;85.20;;;;;;5012632;28;20397;-72
2021/01/08 04:21:29;;;;;;;23.33;14.35;;;3.20;87.00;;;;;;5012997;28;20388;-71
2021/01/08 04:23:55;;;;;;;21.70;14.38;;;3.10;85.20;;;;;;5012653;28;20920;-71
2021/01/08 04:26:21;;;;;;;19.73;13.55;;;3.10;84.80;;;;;;5012321;28;20424;-71
2021/01/08 04:28:47;;;;;;;20.02;14.27;;;3.10;85.20;;;;;;5012548;28;20409;-71
2021/01/08 04:31:13;;;;;;;18.17;13.10;;;3.10;84.30;;;;;;5012147;28;20450;-70
2021/01/08 04:33:40;;;;;;;18.35;13.10;;;3.20;81.50;;;;;;5012527;28;20424;-72
2021/01/08 04:36:08;;;;;;;19.17;13.00;;;3.30;80.10;;;;;;5012416;28;20388;-71
2021/01/08 04:38:33;;;;;;;17.25;12.65;;;3.30;78.80;;;;;;5012528;28;20392;-70
2021/01/08 04:40:59;;;;;;;17.17;12.33;;;3.30;78.50;;;;;;5011632;28;20458;-71
2021/01/08 04:43:25;;;;;;;17.77;13.00;;;3.30;78.20;;;;;;5012005;28;20407;-70
2021/01/08 04:45:50;;;;;;;18.30;12.80;;;3.30;78.20;;;;;;5012249;28;20436;-72
2021/01/08 04:48:17;;;;;;;17.33;12.67;;;3.20;79.00;;;;;;5011972;28;20404;-72
2021/01/08 04:50:44;;;;;;;18.58;12.75;;;3.30;79.30;;;;;;5011656;28;20393;-70
2021/01/08 04:53:10;;;;;;;17.63;13.25;;;3.30;79.40;;;;;;5009748;28;20905;-72
2021/01/08 04:55:36;;;;;;;17.87;12.97;;;3.20;79.70;;;;;;5011710;28;20487;-71
2021/01/08 04:58:05;;;;;;;18.50;12.70;;;3.20;80.60;;;;;;5012072;28;20391;-72
2021/01/08 05:00:31;;;;;;;17.65;12.77;;;3.20;79.70;;;;;;5011613;28;20392;-71
2021/01/08 05:02:57;;;;;;;17.17;12.77;;;3.30;80.50;;;;;;5010659;28;20385;-71
2021/01/08 05:05:23;;;;;;;17.13;12.18;;;3.30;80.00;;;;;;5011848;28;20435;-71
2021/01/08 05:07:49;;;;;;;17.55;12.15;;;3.20;80.80;;;;;;5011347;28;20451;-71
2021/01/08 05:10:14;;;;;;;16.55;12.13;;;3.30;80.40;;;;;;5011303;28;20385;-72
2021/01/08 05:12:41;;;;;;;15.25;11.38;;;3.20;80.20;;;;;;5011584;28;20391;-73
2021/01/08 05:15:14;;;;;;;16.92;12.27;;;3.20;80.70;;;;;;5011212;28;20878;-72
2021/01/08 05:17:41;;;;;;;16.10;11.27;;;3.30;82.70;;;;;;5011902;28;20408;-71
2021/01/08 05:20:07;;;;;;;18.30;12.55;;;3.50;77.00;;;;;;5011321;28;20389;-72
2021/01/08 05:22:33;;;;;;;16.10;12.25;;;3.40;78.70;;;;;;5011130;28;20397;-74
2021/01/08 05:25:09;;;;;;;17.40;12.90;;;3.20;81.00;;;;;;5011182;28;20395;-71
2021/01/08 05:27:35;;;;;;;17.98;12.35;;;3.20;81.40;;;;;;5011108;28;20415;-70
2021/01/08 05:30:19;;;;;;;15.90;12.17;;;3.30;80.70;;;;;;5011124;28;20393;-71
2021/01/08 05:32:45;;;;;;;16.00;11.07;;;3.40;79.80;;;;;;5011148;28;20454;-71
2021/01/08 05:35:16;;;;;;;16.77;12.20;;;3.30;79.60;;;;;;5011687;28;20771;-70
2021/01/08 05:37:46;;;;;;;18.70;13.32;;;3.40;80.00;;;;;;5010442;28;20838;-71
2021/01/08 05:40:13;;;;;;;16.95;12.05;;;3.30;80.40;;;;;;5011318;28;20385;-72
2021/01/08 05:42:58;;;;;;;15.90;11.85;;;3.40;80.70;;;;;;5011099;28;20412;-70
2021/01/08 05:45:29;;;;;;;18.20;13.02;;;3.40;80.50;;;;;;5010939;28;20473;-71
2021/01/08 05:47:57;;;;;;;19.05;13.30;;;3.30;81.90;;;;;;5008977;28;20420;-71
2021/01/08 05:50:24;;;;;;;17.57;13.07;;;3.30;82.70;;;;;;5011635;28;20563;-71
2021/01/08 05:53:03;;;;;;;18.23;12.65;;;3.30;83.60;;;;;;5012809;28;20416;-72
2021/01/08 05:55:34;;;;;;;18.98;13.40;;;3.50;82.80;;;;;;5010965;28;20393;-70
2021/01/08 05:57:59;;;;;;;17.15;13.18;;;3.80;80.10;;;;;;5012025;28;20442;-71
2021/01/08 06:00:25;;;;;;;19.07;12.63;;;3.90;75.20;;;;;;5010105;28;20870;-70
2021/01/08 06:02:52;;;;;;;17.03;12.13;;;3.90;75.40;;;;;;5011622;28;20401;-71
2021/01/08 06:05:20;;;;;;;18.88;13.65;;;3.80;74.90;;;;;;5012065;28;20885;-71
2021/01/08 06:07:49;;;;;;;20.05;13.15;;;3.80;76.30;;;;;;5011416;28;20456;-72
2021/01/08 06:10:18;;;;;;;19.02;13.00;;;3.80;77.30;;;;;;5011974;28;20412;-71
2021/01/08 06:12:45;;;;;;;20.30;13.80;;;3.70;77.20;;;;;;5011534;28;20886;-71
2021/01/08 06:15:14;;;;;;;19.17;13.93;;;3.70;77.40;;;;;;5011509;28;20408;-70
2021/01/08 06:17:44;;;;;;;20.40;14.15;;;3.50;80.30;;;;;;5012212;28;20389;-72
2021/01/08 06:20:12;;;;;;;23.88;14.80;;;3.70;82.50;;;;;;5011531;28;20834;-70
2021/01/08 06:22:39;;;;;;;20.30;13.77;;;3.90;76.30;;;;;;5011541;28;20392;-71
2021/01/08 06:25:07;;;;;;;19.02;13.43;;;3.70;77.10;;;;;;5011582;28;20428;-72
2021/01/08 06:27:33;;;;;;;19.55;13.18;;;3.60;79.10;;;;;;5015244;28;20670;-70
2021/01/08 06:30:01;;;;;;;19.40;13.25;;;3.60;79.30;;;;;;5014981;28;20408;-70
2021/01/08 06:32:31;;;;;;;18.95;13.18;;;3.60;78.40;;;;;;4995023;28;20392;-71
2021/01/08 06:35:07;;;;;;;17.83;12.80;;;3.60;77.80;;;;;;4994863;28;20379;-71
2021/01/08 06:37:42;;;;;;;17.77;12.10;;;3.60;77.00;;;;;;5001449;28;20424;-71
2021/01/08 06:40:13;;;;;;;17.90;13.10;;;3.50;79.10;;;;;;5014295;28;20400;-72
2021/01/08 06:42:47;;;;;;;18.92;12.70;;;3.40;80.60;;;;;;5014275;28;20387;-70
2021/01/08 06:45:15;;;;;;;17.13;12.65;;;3.50;80.20;;;;;;5012953;28;20392;-70
2021/01/08 06:47:45;;;;;;;15.40;11.48;;;3.50;79.10;;;;;;5013898;28;20405;-71
2021/01/08 06:50:20;;;;;;;17.50;12.85;;;3.60;78.10;;;;;;5012882;28;20407;-71
2021/01/08 06:52:49;;;;;;;15.93;11.60;;;3.50;78.40;;;;;;5011883;28;20446;-71
2021/01/08 06:55:17;;;;;;;17.23;12.25;;;3.50;79.80;;;;;;5012398;28;20409;-71
2021/01/08 06:57:53;;;;;;;15.88;11.52;;;3.50;78.40;;;;;;5012609;28;20400;-71
2021/01/08 07:00:22;;;;;;;15.40;11.30;;;3.50;77.00;;;;;;5012224;28;20480;-71
2021/01/08 07:02:52;;;;;;;16.50;12.20;;;3.40;78.10;;;;;;5014356;28;20478;-73
2021/01/08 07:05:19;;;;;;;15.90;11.90;;;3.50;80.20;;;;;;5012206;28;20405;-72
2021/01/08 07:07:46;;;;;;;15.80;11.15;;;3.80;75.70;;;;;;5012594;28;20406;-72
2021/01/08 07:10:15;;;;;;;14.73;10.93;;;3.80;74.90;;;;;;5011997;28;20405;-71
2021/01/08 07:12:42;;;;;;;14.70;11.25;;;3.80;71.50;;;;;;5012378;28;20381;-71
2021/01/08 07:15:09;;;;;;;17.02;11.05;;;3.70;73.70;;;;;;5012548;28;20381;-72
2021/01/08 07:17:36;;;;;;;16.98;11.98;;;3.50;76.00;;;;;;5012335;28;20389;-70
2021/01/08 07:20:05;;;;;;;15.47;11.17;;;3.50;76.50;;;;;;5011599;28;20446;-70
2021/01/08 07:22:41;;;;;;;14.75;10.75;;;3.60;76.80;;;;;;5011977;28;20755;-72
2021/01/08 07:25:11;;;;;;;15.90;11.20;;;3.50;76.10;;;;;;5011932;28;20413;-72
2021/01/08 07:27:40;;;;;;;17.05;12.30;;;3.40;76.90;;;;;;5011620;28;20384;-71
2021/01/08 07:30:08;;;;;;;16.65;11.75;;;3.40;78.20;;;;;;5010488;28;20411;-71
2021/01/08 07:32:36;;;;;;;16.60;11.57;;;3.40;80.00;;;;;;4992350;28;20429;-70
2021/01/08 07:35:22;;;;;;;17.40;12.10;;;3.70;76.40;;;;;;4994107;28;20389;-71
2021/01/08 07:38:14;;;;;;;17.83;11.68;;;3.80;74.40;;;;;;5000791;28;20397;-71
2021/01/08 07:40:54;;;;;;;17.15;11.73;;;3.60;75.80;;;;;;5011777;28;20901;-72
2021/01/08 07:43:31;;;;;;;19.60;12.07;;;3.60;75.60;;;;;;5011768;28;20384;-72
2021/01/08 07:45:58;;;;;;;19.87;12.33;;;3.50;77.00;;;;;;5013975;28;20425;-70
2021/01/08 07:48:27;;;;;;;17.35;11.55;;;3.50;77.40;;;;;;5015917;28;20929;-71
2021/01/08 07:50:54;;;;;;;19.93;12.53;;;3.50;77.60;;;;;;4975926;28;1250048;-72
2021/01/08 07:53:42;;;;;;;18.90;12.00;;;3.40;78.60;;;;;;5018083;28;20393;-72
2021/01/08 07:56:18;;;;;;;18.77;11.93;;;3.40;80.10;;;;;;5020273;28;20413;-72
2021/01/08 07:58:59;;;;;;;18.00;12.47;;;3.50;79.80;;;;;;5019253;28;20466;-71
2021/01/08 08:01:25;;;;;;;16.60;11.60;;;3.50;77.10;;;;;;5017295;28;20573;-71
2021/01/08 08:04:08;;;;;;;19.02;12.40;;;3.50;77.30;;;;;;5011936;28;20906;-72
2021/01/08 08:06:41;;;;;;;19.67;12.30;;;3.50;77.00;;;;;;5010418;28;20613;-72
2021/01/08 08:09:10;;;;;;;18.80;12.35;;;3.80;74.20;;;;;;5012033;28;20412;-72
2021/01/08 08:11:36;;;;;;;20.52;12.90;;;3.70;74.40;;;;;;5012442;28;20894;-72
2021/01/08 08:14:03;;;;;;;18.35;12.43;;;3.60;76.50;;;;;;5012102;28;20404;-70
2021/01/08 08:16:34;;;;;;;20.43;12.90;;;3.50;78.60;;;;;;5009442;28;20843;-72
2021/01/08 08:19:00;;;;;;;19.75;12.85;;;3.60;80.70;;;;;;5012591;28;20480;-72
2021/01/08 08:21:26;;;;;;;18.77;13.05;;;3.60;79.10;;;;;;5012400;28;20405;-73
2021/01/08 08:23:53;;;;;;;19.30;12.35;;;3.80;79.60;;;;;;5013396;28;20854;-71
2021/01/08 08:26:20;;;;;;;20.35;12.93;;;4.10;74.50;;;;;;5013060;28;20405;-73
2021/01/08 08:28:57;;;;;;;18.52;12.45;;;4.00;74.40;;;;;;5012147;28;20412;-73
2021/01/08 08:31:26;;;;;;;20.80;12.02;;;4.10;74.90;;;;;;5012938;28;20429;-72
2021/01/08 08:33:52;;;;;;;21.70;12.80;;;4.10;70.30;;;;;;5011447;28;20472;-72
2021/01/08 08:36:22;;;;;;;22.63;13.15;;;4.00;71.70;;;;;;5012930;28;21001;-72
2021/01/08 08:39:15;;;;;;;24.45;13.50;;;4.00;73.00;;;;;;5012259;28;20399;-70
2021/01/08 08:41:46;;;;;;;24.70;13.45;;;4.00;74.90;;;;;;5008537;28;20470;-71
2021/01/08 08:44:18;;;;;;;23.55;13.95;;;4.10;76.40;;;;;;5011927;28;20411;-71
2021/01/08 08:46:45;;;;;;;26.38;13.60;;;4.10;74.50;;;;;;5010757;28;20393;-73
2021/01/08 08:49:15;;;;;;;20.70;13.65;;;3.90;76.10;;;;;;5010621;28;20427;-72
2021/01/08 08:51:42;;;;;;;21.23;12.80;;;3.90;77.60;;;;;;5011766;28;20401;-72
2021/01/08 08:54:08;;;;;;;21.00;12.50;;;3.90;78.60;;;;;;5011197;28;20388;-72
2021/01/08 08:56:37;;;;;;;18.40;12.60;;;4.20;75.50;;;;;;5010756;28;20428;-72
2021/01/08 08:59:03;;;;;;;21.13;13.60;;;4.10;74.80;;;;;;5011586;28;20851;-70
2021/01/08 09:01:39;;;;;;;19.57;13.50;;;4.00;75.00;;;;;;5011181;28;20401;-72
2021/01/08 09:04:06;;;;;;;20.10;13.05;;;4.10;75.30;;;;;;5011373;28;20401;-71
2021/01/08 09:06:37;;;;;;;20.45;12.88;;;4.10;75.50;;;;;;5012796;28;20401;-72
2021/01/08 09:09:23;;;;;;;20.08;13.50;;;4.10;75.50;;;;;;5021433;28;20405;-72
2021/01/08 09:12:05;;;;;;;21.40;13.37;;;4.20;74.50;;;;;;5019922;28;20910;-72
2021/01/08 09:14:34;;;;;;;21.67;13.30;;;4.30;75.20;;;;;;5007526;28;20761;-71
2021/01/08 09:17:06;;;;;;;21.52;13.30;;;4.60;69.60;;;;;;5012941;28;20412;-73
2021/01/08 09:19:37;;;;;;;18.52;12.02;;;4.70;67.10;;;;;;4999908;28;20399;-72
2021/01/08 09:22:05;;;;;;;24.05;13.95;;;4.70;68.40;;;;;;5013818;28;20551;-72
2021/01/08 09:24:32;;;;;;;20.75;12.70;;;4.70;69.80;;;;;;5011570;28;20495;-72
2021/01/08 09:27:00;;;;;;;21.65;13.07;;;4.60;69.00;;;;;;5011613;28;20553;-72
2021/01/08 09:29:28;;;;;;;18.35;11.82;;;4.60;68.50;;;;;;5011540;28;20408;-73
2021/01/08 09:31:54;;;;;;;19.20;12.85;;;4.50;68.00;;;;;;5010068;28;20397;-72
2021/01/08 09:34:21;;;;;;;18.43;11.90;;;4.50;70.00;;;;;;4991554;28;20382;-71
2021/01/08 09:36:47;;;;;;;20.85;13.00;;;4.50;72.00;;;;;;5008105;28;20419;-73
2021/01/08 09:39:14;;;;;;;21.30;13.70;;;4.60;71.30;;;;;;5010783;28;20392;-72
2021/01/08 09:41:41;;;;;;;24.63;14.02;;;4.40;73.30;;;;;;5009882;28;20416;-72
2021/01/08 09:44:09;;;;;;;26.63;15.10;;;4.50;70.00;;;;;;5011681;28;20451;-72
2021/01/08 09:46:54;;;;;;;25.23;15.23;;;4.50;70.80;;;;;;5011268;28;20806;-72
2021/01/08 09:49:19;;;;;;;26.50;15.77;;;4.40;72.70;;;;;;5016644;28;20440;-72
2021/01/08 09:51:45;;;;;;;26.05;15.23;;;4.50;73.40;;;;;;5017894;28;20487;-72
2021/01/08 09:54:11;;;;;;;23.73;15.03;;;4.50;68.60;;;;;;5017988;28;20395;-72
2021/01/08 09:56:37;;;;;;;22.77;14.20;;;4.60;71.90;;;;;;5018750;28;20727;-72
2021/01/08 09:59:14;;;;;;;23.02;13.45;;;4.60;71.20;;;;;;5015488;28;20763;-72
2021/01/08 10:02:00;;;;;;;19.65;13.05;;;4.60;69.70;;;;;;4997737;28;20912;-73
2021/01/08 10:04:33;;;;;;;20.70;13.27;;;4.50;71.40;;;;;;5016062;28;20407;-72
2021/01/08 10:07:03;;;;;;;18.85;12.52;;;4.40;73.80;;;;;;5016675;28;20484;-74
2021/01/08 10:09:50;;;;;;;17.88;11.93;;;4.50;71.00;;;;;;5017534;28;20472;-73
2021/01/08 10:12:20;;;;;;;17.02;11.73;;;4.60;70.60;;;;;;5015784;28;20389;-72
2021/01/08 10:14:46;;;;;;;17.52;11.00;;;4.60;71.20;;;;;;5011116;28;20401;-73
2021/01/08 10:17:15;;;;;;;16.23;11.63;;;4.70;70.50;;;;;;5017139;28;20406;-73
2021/01/08 10:19:43;;;;;;;18.75;10.85;;;4.60;70.30;;;;;;5013719;28;20423;-73
2021/01/08 10:22:08;;;;;;;17.77;11.83;;;4.70;67.30;;;;;;5010764;28;20399;-73
2021/01/08 10:24:34;;;;;;;17.42;11.68;;;4.70;67.90;;;;;;5010129;28;20836;-73
2021/01/08 10:27:00;;;;;;;16.83;11.20;;;4.70;69.10;;;;;;5011322;28;20385;-72
2021/01/08 10:29:38;;;;;;;17.07;11.83;;;4.60;71.40;;;;;;5009175;28;20420;-73
2021/01/08 10:32:08;;;;;;;16.73;11.43;;;4.90;69.40;;;;;;5010291;28;20396;-72
2021/01/08 10:34:42;;;;;;;18.05;11.05;;;5.00;66.30;;;;;;5010521;28;20400;-73
2021/01/08 10:37:18;;;;;;;15.82;10.63;;;4.80;65.60;;;;;;5011166;28;20798;-74
2021/01/08 10:39:45;;;;;;;18.65;11.13;;;4.70;67.00;;;;;;5008211;28;20413;-72
2021/01/08 10:42:11;;;;;;;16.77;10.90;;;4.60;68.10;;;;;;5010898;28;20384;-73
2021/01/08 10:44:37;;;;;;;19.27;11.00;;;4.60;69.50;;;;;;5010313;28;20397;-73
2021/01/08 10:47:04;;;;;;;20.20;11.23;;;4.60;69.50;;;;;;5009703;28;20404;-72
2021/01/08 10:49:29;;;;;;;16.70;9.20;;;4.60;69.70;;;;;;5009550;28;20906;-72
2021/01/08 10:51:55;;;;;;;17.38;11.40;;;4.50;67.80;;;;;;5009719;28;20420;-72
2021/01/08 10:54:20;;;;;;;14.52;10.40;;;4.60;71.40;;;;;;5009599;28;20435;-73
2021/01/08 10:56:46;;;;;;;17.47;10.57;;;4.60;69.50;;;;;;5009687;28;20955;-72
2021/01/08 10:59:12;;;;;;;15.73;10.77;;;4.50;70.40;;;;;;5009529;28;20476;-73
2021/01/08 11:01:40;;;;;;;17.80;10.50;;;4.50;71.20;;;;;;5009120;28;20394;-73
2021/01/08 11:04:06;;;;;;;15.80;10.50;;;4.40;71.60;;;;;;5009988;28;20425;-72
2021/01/08 11:06:31;;;;;;;19.00;10.73;;;4.40;71.00;;;;;;5009530;28;20431;-72
2021/01/08 11:08:57;;;;;;;19.13;11.53;;;4.40;71.40;;;;;;5010156;28;20814;-72
2021/01/08 11:11:23;;;;;;;17.97;11.60;;;4.40;72.10;;;;;;5010177;28;20376;-73
2021/01/08 11:13:49;;;;;;;18.30;11.23;;;4.50;71.90;;;;;;5013550;28;20793;-71
2021/01/08 11:16:14;;;;;;;18.27;11.93;;;4.60;73.90;;;;;;5014804;28;20380;-72
2021/01/08 11:18:40;;;;;;;16.40;10.90;;;4.60;72.50;;;;;;5013746;28;20400;-72
2021/01/08 11:21:05;;;;;;;17.23;10.70;;;4.80;68.80;;;;;;5012821;28;20396;-71
2021/01/08 11:23:31;;;;;;;13.60;9.50;;;4.80;67.30;;;;;;5013145;28;20400;-74
2021/01/08 11:25:57;;;;;;;13.35;9.25;;;4.80;68.70;;;;;;5013356;28;20400;-73
2021/01/08 11:28:22;;;;;;;14.83;9.97;;;4.90;68.20;;;;;;5013002;28;20408;-74
2021/01/08 11:30:49;;;;;;;15.95;10.43;;;4.90;67.70;;;;;;5012923;28;20404;-72
2021/01/08 11:33:14;;;;;;;15.20;9.50;;;5.00;65.90;;;;;;5013032;28;20446;-73
2021/01/08 11:35:40;;;;;;;16.50;10.80;;;5.00;65.80;;;;;;5012440;28;20392;-74
2021/01/08 11:38:05;;;;;;;16.53;10.17;;;5.20;68.60;;;;;;5013304;28;20392;-74
2021/01/08 11:40:31;;;;;;;12.83;9.53;;;5.30;63.10;;;;;;5011963;28;20886;-73
2021/01/08 11:42:57;;;;;;;12.10;8.80;;;5.30;59.70;;;;;;5012990;28;20388;-73
2021/01/08 11:45:22;;;;;;;13.13;8.67;;;5.20;62.10;;;;;;5012833;28;20404;-72
2021/01/08 11:47:48;;;;;;;8.13;6.47;;;5.30;63.50;;;;;;5012122;28;20447;-74
2021/01/08 11:50:14;;;;;;;10.35;7.10;;;5.10;62.00;;;;;;5012066;28;20409;-73
2021/01/08 11:52:39;;;;;;;10.90;7.03;;;5.00;60.90;;;;;;5012910;28;20439;-73
2021/01/08 11:55:05;;;;;;;8.53;6.70;;;4.90;62.00;;;;;;5012175;28;20397;-73
2021/01/08 11:57:31;;;;;;;10.10;7.60;;;4.90;62.80;;;;;;5012702;28;20404;-71
2021/01/08 11:59:56;;;;;;;9.07;6.87;;;4.80;66.50;;;;;;5012343;28;20894;-72
2021/01/08 12:02:22;;;;;;;9.52;7.32;;;4.90;66.60;;;;;;5012547;28;20458;-73
2021/01/08 12:04:50;;;;;;;11.90;7.80;;;5.00;66.30;;;;;;5017449;28;20875;-72
2021/01/08 12:07:16;;;;;;;10.50;7.53;;;4.80;64.20;;;;;;5019302;28;20396;-72
2021/01/08 12:09:42;;;;;;;13.63;8.63;;;4.70;67.70;;;;;;5018960;28;20409;-71
2021/01/08 12:12:08;;;;;;;15.10;8.60;;;4.70;68.30;;;;;;5020491;28;20416;-71
2021/01/08 12:14:33;;;;;;;11.68;7.45;;;4.50;65.80;;;;;;5021105;28;20404;-71
2021/01/08 12:17:04;;;;;;;11.80;7.17;;;4.40;68.70;;;;;;5021234;28;20416;-72
2021/01/08 12:19:29;;;;;;;10.90;7.90;;;4.30;70.10;;;;;;5019446;28;20396;-71
2021/01/08 12:21:55;;;;;;;12.05;7.47;;;4.30;71.80;;;;;;5020772;28;20400;-71
2021/01/08 12:24:21;;;;;;;17.10;10.63;;;4.50;71.40;;;;;;5018417;28;20397;-70
2021/01/08 12:26:53;;;;;;;18.23;11.80;;;4.40;70.50;;;;;;5015569;28;20459;-71
2021/01/08 12:29:20;;;;;;;18.80;12.43;;;4.40;71.10;;;;;;5011958;28;20405;-72
2021/01/08 12:31:46;;;;;;;19.60;12.70;;;4.40;69.90;;;;;;5011754;28;20393;-72
2021/01/08 12:34:11;;;;;;;17.93;12.50;;;4.40;69.90;;;;;;5020166;28;20564;-71
2021/01/08 12:36:37;;;;;;;17.97;12.20;;;4.50;70.10;;;;;;5016672;28;20400;-72
2021/01/08 12:39:04;;;;;;;21.17;12.93;;;4.40;69.70;;;;;;5015129;28;20488;-73
2021/01/08 12:41:31;;;;;;;18.33;12.30;;;4.50;69.70;;;;;;5014438;28;20397;-73
2021/01/08 12:43:57;;;;;;;22.07;13.23;;;4.50;72.00;;;;;;5011726;28;20762;-73